sensor_id;sensor_type;location;lat;lon;timestamp;pressure;altitude;pressure_sealevel;temperature;humidity
4012;BME280;2020;48.682;9.024;2023-03-14T00:02:07;94883.06;;;7.91;100.00
4012;BME280;2020;48.682;9.024;2023-03-14T00:04:32;94883.88;;;7.92;100.00
4012;BME280;2020;48.682;9.024;2023-03-14T00:06:57;94889.06;;;7.92;100.00
4012;BME280;2020;48.682;9.024;2023-03-14T00:09:23;94881.91;;;7.94;100.00
4012;BME280;2020;48.682;9.024;2023-03-14T00:11:48;94867.09;;;7.87;100.00
4012;BME280;2020;48.682;9.024;2023-03-14T00:14:13;94874.41;;;7.99;100.00
4012;BME280;2020;48.682;9.024;2023-03-14T00:16:40;94864.75;;;7.93;100.00
4012;BME280;2020;48.682;9.024;2023-03-14T00:19:06;94848.84;;;7.96;100.00
4012;BME280;2020;48.682;9.024;2023-03-14T00:21:31;94837.41;;;7.90;100.00
4012;BME280;2020;48.682;9.024;2023-03-14T00:23:56;94838.84;;;7.93;100.00
4012;BME280;2020;48.682;9.024;2023-03-14T00:26:21;94842.22;;;7.93;100.00
4012;BME280;2020;48.682;9.024;2023-03-14T00:28:51;94844.03;;;7.93;100.00
4012;BME280;2020;48.682;9.024;2023-03-14T00:31:16;94847.25;;;7.95;100.00
4012;BME280;2020;48.682;9.024;2023-03-14T00:33:43;94851.44;;;7.96;100.00
4012;BME280;2020;48.682;9.024;2023-03-14T00:36:11;94856.91;;;8.01;100.00
4012;BME280;2020;48.682;9.024;2023-03-14T00:38:38;94856.28;;;7.99;100.00
4012;BME280;2020;48.682;9.024;2023-03-14T00:41:05;94855.28;;;8.00;100.00
4012;BME280;2020;48.682;9.024;2023-03-14T00:43:30;94857.25;;;7.98;100.00
4012;BME280;2020;48.682;9.024;2023-03-14T00:45:55;94852.78;;;7.92;100.00
4012;BME280;2020;48.682;9.024;2023-03-14T00:48:22;94855.19;;;7.93;100.00
4012;BME280;2020;48.682;9.024;2023-03-14T00:50:47;94867.16;;;7.94;100.00
4012;BME280;2020;48.682;9.024;2023-03-14T00:53:13;94873.44;;;8.00;100.00
4012;BME280;2020;48.682;9.024;2023-03-14T00:55:40;94869.22;;;7.99;100.00
4012;BME280;2020;48.682;9.024;2023-03-14T00:58:05;94870.84;;;8.00;100.00
4012;BME280;2020;48.682;9.024;2023-03-14T01:00:31;94875.66;;;8.03;100.00
4012;BME280;2020;48.682;9.024;2023-03-14T01:02:57;94874.06;;;8.02;100.00
4012;BME280;2020;48.682;9.024;2023-03-14T01:05:22;94879.94;;;7.96;100.00
4012;BME280;2020;48.682;9.024;2023-03-14T01:07:48;94877.97;;;7.98;100.00
4012;BME280;2020;48.682;9.024;2023-03-14T01:10:14;94874.25;;;8.00;100.00
4012;BME280;2020;48.682;9.024;2023-03-14T01:12:39;94868.88;;;8.02;100.00
4012;BME280;2020;48.682;9.024;2023-03-14T01:15:05;94863.69;;;8.02;100.00
4012;BME280;2020;48.682;9.024;2023-03-14T01:17:30;94862.19;;;8.08;100.00
4012;BME280;2020;48.682;9.024;2023-03-14T01:19:55;94854.84;;;8.11;100.00
4012;BME280;2020;48.682;9.024;2023-03-14T01:22:21;94842.25;;;8.08;100.00
4012;BME280;2020;48.682;9.024;2023-03-14T01:24:46;94824.38;;;8.13;100.00
4012;BME280;2020;48.682;9.024;2023-03-14T01:27:12;94828.31;;;8.09;100.00
4012;BME280;2020;48.682;9.024;2023-03-14T01:29:38;94832.34;;;8.12;100.00
4012;BME280;2020;48.682;9.024;2023-03-14T01:32:03;94828.66;;;8.06;100.00
4012;BME280;2020;48.682;9.024;2023-03-14T01:34:28;94823.13;;;8.09;100.00
4012;BME280;2020;48.682;9.024;2023-03-14T01:36:54;94813.13;;;8.06;100.00
4012;BME280;2020;48.682;9.024;2023-03-14T01:39:19;94808.66;;;8.00;100.00
4012;BME280;2020;48.682;9.024;2023-03-14T01:41:44;94799.38;;;7.90;100.00
4012;BME280;2020;48.682;9.024;2023-03-14T01:44:11;94784.72;;;7.83;100.00
4012;BME280;2020;48.682;9.024;2023-03-14T01:46:40;94788.56;;;7.87;100.00
4012;BME280;2020;48.682;9.024;2023-03-14T01:49:13;94777.13;;;7.81;100.00
4012;BME280;2020;48.682;9.024;2023-03-14T01:51:49;94764.19;;;7.81;100.00
4012;BME280;2020;48.682;9.024;2023-03-14T01:54:20;94764.53;;;7.78;100.00
4012;BME280;2020;48.682;9.024;2023-03-14T01:56:51;94781.22;;;7.75;100.00
4012;BME280;2020;48.682;9.024;2023-03-14T01:59:18;94778.22;;;7.72;100.00
4012;BME280;2020;48.682;9.024;2023-03-14T02:01:44;94774.00;;;7.71;100.00
4012;BME280;2020;48.682;9.024;2023-03-14T02:04:11;94775.63;;;7.72;100.00
4012;BME280;2020;48.682;9.024;2023-03-14T02:06:47;94777.13;;;7.66;100.00
4012;BME280;2020;48.682;9.024;2023-03-14T02:09:14;94779.19;;;7.71;100.00
4012;BME280;2020;48.682;9.024;2023-03-14T02:11:39;94787.47;;;7.66;100.00
4012;BME280;2020;48.682;9.024;2023-03-14T02:14:05;94779.28;;;7.63;100.00
4012;BME280;2020;48.682;9.024;2023-03-14T02:16:30;94778.66;;;7.60;100.00
4012;BME280;2020;48.682;9.024;2023-03-14T02:18:56;94773.91;;;7.64;100.00
4012;BME280;2020;48.682;9.024;2023-03-14T02:21:52;94769.19;;;7.68;100.00
4012;BME280;2020;48.682;9.024;2023-03-14T02:24:34;94769.19;;;7.68;100.00
4012;BME280;2020;48.682;9.024;2023-03-14T02:27:10;94756.88;;;7.70;100.00
4012;BME280;2020;48.682;9.024;2023-03-14T02:29:40;94754.00;;;7.65;100.00
4012;BME280;2020;48.682;9.024;2023-03-14T02:32:07;94750.81;;;7.63;100.00
4012;BME280;2020;48.682;9.024;2023-03-14T02:34:33;94750.09;;;7.69;100.00
4012;BME280;2020;48.682;9.024;2023-03-14T02:37:00;94746.06;;;7.66;100.00
4012;BME280;2020;48.682;9.024;2023-03-14T02:39:33;94764.72;;;7.61;100.00
4012;BME280;2020;48.682;9.024;2023-03-14T02:42:00;94739.19;;;7.58;100.00
4012;BME280;2020;48.682;9.024;2023-03-14T02:44:25;94726.50;;;7.64;100.00
4012;BME280;2020;48.682;9.024;2023-03-14T02:46:51;94736.88;;;7.64;100.00
4012;BME280;2020;48.682;9.024;2023-03-14T02:49:17;94727.31;;;7.64;100.00
4012;BME280;2020;48.682;9.024;2023-03-14T02:51:44;94733.66;;;7.61;100.00
4012;BME280;2020;48.682;9.024;2023-03-14T02:54:11;94735.25;;;7.63;100.00
4012;BME280;2020;48.682;9.024;2023-03-14T02:56:36;94716.88;;;7.57;100.00
4012;BME280;2020;48.682;9.024;2023-03-14T02:59:04;94720.09;;;7.59;100.00
4012;BME280;2020;48.682;9.024;2023-03-14T03:01:29;94711.69;;;7.57;100.00
4012;BME280;2020;48.682;9.024;2023-03-14T03:03:54;94712.59;;;7.65;100.00
4012;BME280;2020;48.682;9.024;2023-03-14T03:06:19;94716.16;;;7.64;100.00
4012;BME280;2020;48.682;9.024;2023-03-14T03:08:45;94715.69;;;7.60;100.00
4012;BME280;2020;48.682;9.024;2023-03-14T03:11:10;94700.88;;;7.54;100.00
4012;BME280;2020;48.682;9.024;2023-03-14T03:13:35;94691.72;;;7.51;100.00
4012;BME280;2020;48.682;9.024;2023-03-14T03:16:01;94684.19;;;7.56;100.00
4012;BME280;2020;48.682;9.024;2023-03-14T03:18:26;94688.91;;;7.53;98.93
4012;BME280;2020;48.682;9.024;2023-03-14T03:20:51;94692.34;;;7.53;99.27
4012;BME280;2020;48.682;9.024;2023-03-14T03:23:17;94687.06;;;7.46;97.93
4012;BME280;2020;48.682;9.024;2023-03-14T03:25:48;94682.06;;;7.45;97.95
4012;BME280;2020;48.682;9.024;2023-03-14T03:28:13;94670.47;;;7.41;98.64
4012;BME280;2020;48.682;9.024;2023-03-14T03:30:40;94662.44;;;7.36;97.69
4012;BME280;2020;48.682;9.024;2023-03-14T03:33:05;94655.31;;;7.38;94.92
4012;BME280;2020;48.682;9.024;2023-03-14T03:35:30;94653.69;;;7.37;94.82
4012;BME280;2020;48.682;9.024;2023-03-14T03:37:56;94668.59;;;7.35;95.12
4012;BME280;2020;48.682;9.024;2023-03-14T03:40:21;94649.88;;;7.32;94.74
4012;BME280;2020;48.682;9.024;2023-03-14T03:42:46;94649.25;;;7.30;94.09
4012;BME280;2020;48.682;9.024;2023-03-14T03:45:12;94646.97;;;7.27;93.89
4012;BME280;2020;48.682;9.024;2023-03-14T03:47:37;94651.16;;;7.28;92.42
4012;BME280;2020;48.682;9.024;2023-03-14T03:50:03;94630.81;;;7.25;92.05
4012;BME280;2020;48.682;9.024;2023-03-14T03:52:28;94629.22;;;7.24;92.48
4012;BME280;2020;48.682;9.024;2023-03-14T03:54:53;94638.31;;;7.20;91.03
4012;BME280;2020;48.682;9.024;2023-03-14T03:57:19;94626.84;;;7.23;92.63
4012;BME280;2020;48.682;9.024;2023-03-14T03:59:44;94638.31;;;7.20;91.94
4012;BME280;2020;48.682;9.024;2023-03-14T04:02:09;94635.94;;;7.19;91.90
4012;BME280;2020;48.682;9.024;2023-03-14T04:04:35;94627.56;;;7.16;91.95
4012;BME280;2020;48.682;9.024;2023-03-14T04:07:00;94634.31;;;7.17;92.01
4012;BME280;2020;48.682;9.024;2023-03-14T04:09:25;94628.06;;;7.12;91.67
4012;BME280;2020;48.682;9.024;2023-03-14T04:11:51;94626.47;;;7.11;91.72
4012;BME280;2020;48.682;9.024;2023-03-14T04:14:16;94629.06;;;7.11;90.24
4012;BME280;2020;48.682;9.024;2023-03-14T04:16:41;94623.53;;;7.14;89.90
4012;BME280;2020;48.682;9.024;2023-03-14T04:19:06;94623.53;;;7.14;90.37
4012;BME280;2020;48.682;9.024;2023-03-14T04:21:32;94614.97;;;7.13;89.54
4012;BME280;2020;48.682;9.024;2023-03-14T04:23:57;94613.16;;;7.14;88.48
4012;BME280;2020;48.682;9.024;2023-03-14T04:26:22;94617.38;;;7.15;89.10
4012;BME280;2020;48.682;9.024;2023-03-14T04:28:47;94603.63;;;7.14;88.82
4012;BME280;2020;48.682;9.024;2023-03-14T04:31:16;94613.53;;;7.11;89.07
4012;BME280;2020;48.682;9.024;2023-03-14T04:33:41;94610.31;;;7.09;89.17
4012;BME280;2020;48.682;9.024;2023-03-14T04:36:08;94602.28;;;7.03;89.16
4012;BME280;2020;48.682;9.024;2023-03-14T04:38:34;94594.38;;;7.05;89.21
4012;BME280;2020;48.682;9.024;2023-03-14T04:40:59;94600.31;;;7.06;89.27
4012;BME280;2020;48.682;9.024;2023-03-14T04:43:25;94600.69;;;7.02;89.67
4012;BME280;2020;48.682;9.024;2023-03-14T04:45:53;94600.69;;;7.02;88.79
4012;BME280;2020;48.682;9.024;2023-03-14T04:48:18;94596.22;;;6.96;90.38
4012;BME280;2020;48.682;9.024;2023-03-14T04:50:43;94590.06;;;6.97;89.81
4012;BME280;2020;48.682;9.024;2023-03-14T04:53:09;94586.59;;;6.90;90.28
4012;BME280;2020;48.682;9.024;2023-03-14T04:55:34;94574.66;;;6.89;89.92
4012;BME280;2020;48.682;9.024;2023-03-14T04:58:00;94574.66;;;6.89;90.90
4012;BME280;2020;48.682;9.024;2023-03-14T05:00:25;94572.25;;;6.87;91.40
4012;BME280;2020;48.682;9.024;2023-03-14T05:02:51;94563.88;;;6.85;91.29
4012;BME280;2020;48.682;9.024;2023-03-14T05:05:16;94563.06;;;6.85;90.73
4012;BME280;2020;48.682;9.024;2023-03-14T05:07:42;94557.47;;;6.81;90.76
4012;BME280;2020;48.682;9.024;2023-03-14T05:10:08;94553.44;;;6.79;89.84
4012;BME280;2020;48.682;9.024;2023-03-14T05:12:33;94550.06;;;6.78;90.35
4012;BME280;2020;48.682;9.024;2023-03-14T05:14:59;94549.88;;;6.80;91.08
4012;BME280;2020;48.682;9.024;2023-03-14T05:17:24;94541.47;;;6.78;89.09
4012;BME280;2020;48.682;9.024;2023-03-14T05:19:49;94545.06;;;6.77;89.88
4012;BME280;2020;48.682;9.024;2023-03-14T05:22:14;94546.28;;;6.81;88.48
4012;BME280;2020;48.682;9.024;2023-03-14T05:24:40;94553.06;;;6.82;89.21
4012;BME280;2020;48.682;9.024;2023-03-14T05:27:05;94537.91;;;6.79;89.08
4012;BME280;2020;48.682;9.024;2023-03-14T05:29:30;94541.13;;;6.81;89.57
4012;BME280;2020;48.682;9.024;2023-03-14T05:31:55;94539.78;;;6.85;89.62
4012;BME280;2020;48.682;9.024;2023-03-14T05:34:21;94528.47;;;6.86;88.85
4012;BME280;2020;48.682;9.024;2023-03-14T05:36:46;94532.91;;;6.92;88.69
4012;BME280;2020;48.682;9.024;2023-03-14T05:39:11;94524.88;;;6.87;88.84
4012;BME280;2020;48.682;9.024;2023-03-14T05:41:37;94529.69;;;6.90;88.30
4012;BME280;2020;48.682;9.024;2023-03-14T05:44:02;94520.97;;;6.91;87.74
4012;BME280;2020;48.682;9.024;2023-03-14T05:46:27;94514.19;;;6.90;88.61
4012;BME280;2020;48.682;9.024;2023-03-14T05:48:54;94526.50;;;6.88;87.75
4012;BME280;2020;48.682;9.024;2023-03-14T05:51:19;94525.72;;;6.87;87.83
4012;BME280;2020;48.682;9.024;2023-03-14T05:53:44;94524.53;;;6.90;87.99
4012;BME280;2020;48.682;9.024;2023-03-14T05:56:10;94517.75;;;6.89;87.96
4012;BME280;2020;48.682;9.024;2023-03-14T05:58:35;94520.97;;;6.91;87.73
4012;BME280;2020;48.682;9.024;2023-03-14T06:01:04;94524.16;;;6.93;87.41
4012;BME280;2020;48.682;9.024;2023-03-14T06:03:31;94530.31;;;6.92;87.17
4012;BME280;2020;48.682;9.024;2023-03-14T06:05:56;94531.31;;;6.91;87.45
4012;BME280;2020;48.682;9.024;2023-03-14T06:08:21;94541.91;;;6.96;87.41
4012;BME280;2020;48.682;9.024;2023-03-14T06:10:46;94525.41;;;6.97;86.54
4012;BME280;2020;48.682;9.024;2023-03-14T06:13:12;94527.28;;;7.03;87.24
4012;BME280;2020;48.682;9.024;2023-03-14T06:15:37;94526.28;;;7.05;86.08
4012;BME280;2020;48.682;9.024;2023-03-14T06:18:02;94514.34;;;7.03;86.56
4012;BME280;2020;48.682;9.024;2023-03-14T06:20:28;94519.97;;;7.07;85.41
4012;BME280;2020;48.682;9.024;2023-03-14T06:22:53;94520.75;;;7.08;84.64
4012;BME280;2020;48.682;9.024;2023-03-14T06:25:18;94513.63;;;7.10;84.61
4012;BME280;2020;48.682;9.024;2023-03-14T06:27:44;94518.78;;;7.10;85.26
4012;BME280;2020;48.682;9.024;2023-03-14T06:30:10;94502.28;;;7.11;83.91
4012;BME280;2020;48.682;9.024;2023-03-14T06:32:35;94506.09;;;7.15;84.48
4012;BME280;2020;48.682;9.024;2023-03-14T06:35:00;94497.56;;;7.14;84.77
4012;BME280;2020;48.682;9.024;2023-03-14T06:37:27;94500.56;;;7.18;84.56
4012;BME280;2020;48.682;9.024;2023-03-14T06:39:53;94491.47;;;7.22;83.61
4012;BME280;2020;48.682;9.024;2023-03-14T06:42:19;94489.50;;;7.24;83.06
4012;BME280;2020;48.682;9.024;2023-03-14T06:44:45;94493.97;;;7.30;83.67
4012;BME280;2020;48.682;9.024;2023-03-14T06:47:10;94490.06;;;7.41;83.19
4012;BME280;2020;48.682;9.024;2023-03-14T06:49:35;94486.69;;;7.63;81.80
4012;BME280;2020;48.682;9.024;2023-03-14T06:52:01;94489.66;;;7.81;81.71
4012;BME280;2020;48.682;9.024;2023-03-14T06:54:26;94494.81;;;7.81;79.66
4012;BME280;2020;48.682;9.024;2023-03-14T06:57:00;94495.56;;;7.75;80.81
4012;BME280;2020;48.682;9.024;2023-03-14T06:59:25;94503.47;;;7.67;81.60
4012;BME280;2020;48.682;9.024;2023-03-14T07:01:51;94502.22;;;7.63;82.09
4012;BME280;2020;48.682;9.024;2023-03-14T07:04:17;94513.56;;;7.61;81.70
4012;BME280;2020;48.682;9.024;2023-03-14T07:06:42;94517.25;;;7.96;80.67
4012;BME280;2020;48.682;9.024;2023-03-14T07:09:10;94511.69;;;7.99;80.76
4012;BME280;2020;48.682;9.024;2023-03-14T07:11:36;94530.72;;;7.84;79.88
4012;BME280;2020;48.682;9.024;2023-03-14T07:14:01;94533.69;;;7.81;80.63
4012;BME280;2020;48.682;9.024;2023-03-14T07:16:26;94535.66;;;7.79;80.85
4012;BME280;2020;48.682;9.024;2023-03-14T07:18:54;94542.78;;;7.99;79.75
4012;BME280;2020;48.682;9.024;2023-03-14T07:21:19;94537.91;;;8.39;78.09
4012;BME280;2020;48.682;9.024;2023-03-14T07:23:45;94538.38;;;8.71;78.35
4012;BME280;2020;48.682;9.024;2023-03-14T07:26:10;94542.19;;;8.75;77.94
4012;BME280;2020;48.682;9.024;2023-03-14T07:28:35;94536.53;;;8.65;76.83
4012;BME280;2020;48.682;9.024;2023-03-14T07:31:01;94543.78;;;8.76;76.85
4012;BME280;2020;48.682;9.024;2023-03-14T07:33:26;94542.75;;;9.13;77.92
4012;BME280;2020;48.682;9.024;2023-03-14T07:35:51;94528.69;;;8.93;74.66
4012;BME280;2020;48.682;9.024;2023-03-14T07:38:17;94548.38;;;9.23;76.58
4012;BME280;2020;48.682;9.024;2023-03-14T07:40:42;94539.69;;;9.51;75.47
4012;BME280;2020;48.682;9.024;2023-03-14T07:43:07;94548.53;;;9.90;74.70
4012;BME280;2020;48.682;9.024;2023-03-14T07:45:33;94541.34;;;9.86;72.59
4012;BME280;2020;48.682;9.024;2023-03-14T07:47:58;94538.13;;;9.77;72.89
4012;BME280;2020;48.682;9.024;2023-03-14T07:50:25;94544.75;;;9.86;74.50
4012;BME280;2020;48.682;9.024;2023-03-14T07:52:50;94553.00;;;10.10;73.69
4012;BME280;2020;48.682;9.024;2023-03-14T07:55:15;94552.22;;;10.43;74.96
4012;BME280;2020;48.682;9.024;2023-03-14T07:57:40;94543.78;;;10.75;72.52
4012;BME280;2020;48.682;9.024;2023-03-14T08:00:07;94548.19;;;10.61;70.42
4012;BME280;2020;48.682;9.024;2023-03-14T08:02:32;94555.00;;;10.68;72.75
4012;BME280;2020;48.682;9.024;2023-03-14T08:04:58;94539.75;;;10.72;71.43
4012;BME280;2020;48.682;9.024;2023-03-14T08:07:23;94548.97;;;10.34;72.40
4012;BME280;2020;48.682;9.024;2023-03-14T08:09:48;94551.78;;;10.06;71.44
4012;BME280;2020;48.682;9.024;2023-03-14T08:12:13;94542.19;;;10.00;72.42
4012;BME280;2020;48.682;9.024;2023-03-14T08:14:39;94546.78;;;9.98;71.59
4012;BME280;2020;48.682;9.024;2023-03-14T08:17:04;94562.53;;;9.89;72.04
4012;BME280;2020;48.682;9.024;2023-03-14T08:19:30;94554.34;;;9.92;68.25
4012;BME280;2020;48.682;9.024;2023-03-14T08:21:55;94560.59;;;10.32;69.07
4012;BME280;2020;48.682;9.024;2023-03-14T08:24:20;94564.19;;;10.58;69.27
4012;BME280;2020;48.682;9.024;2023-03-14T08:26:46;94565.00;;;10.65;66.67
4012;BME280;2020;48.682;9.024;2023-03-14T08:29:11;94559.41;;;10.41;67.79
4012;BME280;2020;48.682;9.024;2023-03-14T08:31:37;94558.59;;;10.34;66.93
4012;BME280;2020;48.682;9.024;2023-03-14T08:34:03;94565.78;;;10.32;68.27
4012;BME280;2020;48.682;9.024;2023-03-14T08:36:29;94561.59;;;10.17;67.37
4012;BME280;2020;48.682;9.024;2023-03-14T08:38:54;94569.56;;;9.95;68.25
4012;BME280;2020;48.682;9.024;2023-03-14T08:41:20;94570.53;;;9.81;68.80
4012;BME280;2020;48.682;9.024;2023-03-14T08:43:45;94582.69;;;9.74;70.32
4012;BME280;2020;48.682;9.024;2023-03-14T08:46:10;94570.44;;;9.54;70.32
4012;BME280;2020;48.682;9.024;2023-03-14T08:48:35;94577.25;;;9.55;70.91
4012;BME280;2020;48.682;9.024;2023-03-14T08:51:08;94557.28;;;9.56;72.07
4012;BME280;2020;48.682;9.024;2023-03-14T08:53:35;94589.25;;;9.56;71.51
4012;BME280;2020;48.682;9.024;2023-03-14T08:56:01;94582.44;;;9.55;73.87
4012;BME280;2020;48.682;9.024;2023-03-14T08:58:27;94596.25;;;9.62;74.38
4012;BME280;2020;48.682;9.024;2023-03-14T09:00:52;94595.16;;;9.36;77.89
4012;BME280;2020;48.682;9.024;2023-03-14T09:03:17;94597.63;;;9.10;78.11
4012;BME280;2020;48.682;9.024;2023-03-14T09:05:42;94598.56;;;8.95;78.86
4012;BME280;2020;48.682;9.024;2023-03-14T09:08:08;94610.50;;;8.89;78.63
4012;BME280;2020;48.682;9.024;2023-03-14T09:10:33;94593.25;;;8.75;80.80
4012;BME280;2020;48.682;9.024;2023-03-14T09:12:58;94600.00;;;8.69;80.19
4012;BME280;2020;48.682;9.024;2023-03-14T09:15:25;94600.47;;;8.80;77.69
4012;BME280;2020;48.682;9.024;2023-03-14T09:17:50;94603.28;;;8.85;77.78
4012;BME280;2020;48.682;9.024;2023-03-14T09:20:16;94590.16;;;8.93;76.58
4012;BME280;2020;48.682;9.024;2023-03-14T09:22:41;94592.59;;;9.01;76.89
4012;BME280;2020;48.682;9.024;2023-03-14T09:25:07;94599.03;;;9.05;76.47
4012;BME280;2020;48.682;9.024;2023-03-14T09:27:32;94614.59;;;9.05;74.69
4012;BME280;2020;48.682;9.024;2023-03-14T09:29:58;94608.19;;;9.01;74.02
4012;BME280;2020;48.682;9.024;2023-03-14T09:32:23;94597.03;;;9.07;73.53
4012;BME280;2020;48.682;9.024;2023-03-14T09:34:48;94609.84;;;9.16;73.68
4012;BME280;2020;48.682;9.024;2023-03-14T09:37:14;94599.09;;;9.19;72.93
4012;BME280;2020;48.682;9.024;2023-03-14T09:39:41;94629.13;;;9.35;73.67
4012;BME280;2020;48.682;9.024;2023-03-14T09:42:08;94630.34;;;9.39;72.97
4012;BME280;2020;48.682;9.024;2023-03-14T09:44:51;94625.09;;;9.32;73.49
4012;BME280;2020;48.682;9.024;2023-03-14T09:47:18;94627.91;;;9.38;72.86
4012;BME280;2020;48.682;9.024;2023-03-14T09:49:45;94631.84;;;9.27;73.25
4012;BME280;2020;48.682;9.024;2023-03-14T09:52:35;94635.09;;;9.35;73.97
4012;BME280;2020;48.682;9.024;2023-03-14T09:55:11;94642.72;;;9.37;73.17
4012;BME280;2020;48.682;9.024;2023-03-14T09:57:39;94643.25;;;9.81;75.66
4012;BME280;2020;48.682;9.024;2023-03-14T10:00:06;94646.53;;;9.97;73.08
4012;BME280;2020;48.682;9.024;2023-03-14T10:02:40;94643.75;;;10.05;71.69
4012;BME280;2020;48.682;9.024;2023-03-14T10:05:20;94642.56;;;10.21;71.87
4012;BME280;2020;48.682;9.024;2023-03-14T10:07:46;94630.59;;;10.33;72.01
4012;BME280;2020;48.682;9.024;2023-03-14T10:10:16;94625.81;;;10.64;73.10
4012;BME280;2020;48.682;9.024;2023-03-14T10:12:45;94624.22;;;10.63;68.16
4012;BME280;2020;48.682;9.024;2023-03-14T10:15:13;94626.22;;;10.47;67.74
4012;BME280;2020;48.682;9.024;2023-03-14T10:17:49;94603.00;;;10.46;69.14
4012;BME280;2020;48.682;9.024;2023-03-14T10:22:54;94614.59;;;10.36;69.38
4012;BME280;2020;48.682;9.024;2023-03-14T10:25:27;94622.78;;;10.27;68.44
4012;BME280;2020;48.682;9.024;2023-03-14T10:27:53;94626.78;;;10.29;69.73
4012;BME280;2020;48.682;9.024;2023-03-14T10:30:33;94621.19;;;10.32;68.19
4012;BME280;2020;48.682;9.024;2023-03-14T10:33:10;94613.41;;;10.39;69.79
4012;BME280;2020;48.682;9.024;2023-03-14T10:35:36;94610.19;;;10.23;68.74
4012;BME280;2020;48.682;9.024;2023-03-14T10:38:03;94610.59;;;10.20;68.68
4012;BME280;2020;48.682;9.024;2023-03-14T10:40:34;94615.75;;;10.14;69.32
4012;BME280;2020;48.682;9.024;2023-03-14T10:43:05;94620.31;;;9.91;69.54
4012;BME280;2020;48.682;9.024;2023-03-14T10:45:39;94623.69;;;9.85;69.94
4012;BME280;2020;48.682;9.024;2023-03-14T10:51:03;94628.25;;;9.70;72.17
4012;BME280;2020;48.682;9.024;2023-03-14T10:53:34;94627.59;;;9.54;72.66
4012;BME280;2020;48.682;9.024;2023-03-14T10:56:03;94640.78;;;9.59;73.28
4012;BME280;2020;48.682;9.024;2023-03-14T10:58:32;94632.00;;;9.60;72.96
4012;BME280;2020;48.682;9.024;2023-03-14T11:06:53;94644.03;;;9.75;75.55
4012;BME280;2020;48.682;9.024;2023-03-14T11:09:27;94647.97;;;9.57;74.97
4012;BME280;2020;48.682;9.024;2023-03-14T11:12:02;94652.34;;;9.50;75.42
4012;BME280;2020;48.682;9.024;2023-03-14T11:14:38;94657.94;;;9.47;77.17
4012;BME280;2020;48.682;9.024;2023-03-14T11:17:28;94668.69;;;9.44;77.18
4012;BME280;2020;48.682;9.024;2023-03-14T11:20:05;94667.31;;;9.41;80.04
4012;BME280;2020;48.682;9.024;2023-03-14T11:22:46;94664.19;;;9.24;79.28
4012;BME280;2020;48.682;9.024;2023-03-14T11:25:26;94664.19;;;9.24;82.51
4012;BME280;2020;48.682;9.024;2023-03-14T11:30:45;94673.91;;;9.09;85.04
4012;BME280;2020;48.682;9.024;2023-03-14T11:33:17;94685.66;;;9.04;85.29
4012;BME280;2020;48.682;9.024;2023-03-14T11:35:53;94686.41;;;8.98;85.12
4012;BME280;2020;48.682;9.024;2023-03-14T11:40:58;94688.47;;;9.10;85.83
4012;BME280;2020;48.682;9.024;2023-03-14T11:43:28;94689.31;;;9.17;86.58
4012;BME280;2020;48.682;9.024;2023-03-14T11:46:19;94694.50;;;9.17;87.23
4012;BME280;2020;48.682;9.024;2023-03-14T11:51:44;94696.03;;;9.04;84.79
4012;BME280;2020;48.682;9.024;2023-03-14T11:56:51;94698.22;;;8.79;84.91
4012;BME280;2020;48.682;9.024;2023-03-14T11:59:27;94705.38;;;8.77;85.41
4012;BME280;2020;48.682;9.024;2023-03-14T12:02:00;94723.38;;;8.78;87.25
4012;BME280;2020;48.682;9.024;2023-03-14T12:04:40;94726.84;;;8.64;87.15
4012;BME280;2020;48.682;9.024;2023-03-14T12:07:17;94733.03;;;8.63;88.39
4012;BME280;2020;48.682;9.024;2023-03-14T12:09:44;94749.03;;;8.52;87.48
4012;BME280;2020;48.682;9.024;2023-03-14T12:12:16;94751.88;;;8.57;87.58
4012;BME280;2020;48.682;9.024;2023-03-14T12:14:46;94758.09;;;8.77;86.75
4012;BME280;2020;48.682;9.024;2023-03-14T12:17:22;94759.91;;;9.05;82.60
4012;BME280;2020;48.682;9.024;2023-03-14T12:22:52;94774.75;;;8.68;72.74
4012;BME280;2020;48.682;9.024;2023-03-14T12:25:21;94788.84;;;8.81;72.08
4012;BME280;2020;48.682;9.024;2023-03-14T12:30:33;94785.13;;;9.12;69.69
4012;BME280;2020;48.682;9.024;2023-03-14T12:35:41;94817.16;;;9.26;70.51
4012;BME280;2020;48.682;9.024;2023-03-14T12:38:24;94804.25;;;9.32;64.46
4012;BME280;2020;48.682;9.024;2023-03-14T12:43:34;94829.41;;;9.60;66.48
4012;BME280;2020;48.682;9.024;2023-03-14T12:48:45;94842.91;;;10.06;59.27
4012;BME280;2020;48.682;9.024;2023-03-14T12:51:19;94865.69;;;10.04;60.59
4012;BME280;2020;48.682;9.024;2023-03-14T12:56:47;94875.56;;;9.87;58.17
4012;BME280;2020;48.682;9.024;2023-03-14T12:59:32;94900.19;;;9.41;57.69
4012;BME280;2020;48.682;9.024;2023-03-14T13:04:37;94918.56;;;8.81;57.50
4012;BME280;2020;48.682;9.024;2023-03-14T13:07:35;94921.63;;;8.69;56.43
4012;BME280;2020;48.682;9.024;2023-03-14T13:15:33;94959.16;;;9.47;55.06
4012;BME280;2020;48.682;9.024;2023-03-14T13:18:03;94967.16;;;9.09;54.53
4012;BME280;2020;48.682;9.024;2023-03-14T13:20:35;94982.53;;;8.58;54.84
4012;BME280;2020;48.682;9.024;2023-03-14T13:23:01;94999.16;;;8.49;54.52
4012;BME280;2020;48.682;9.024;2023-03-14T13:25:34;95000.00;;;8.26;53.60
4012;BME280;2020;48.682;9.024;2023-03-14T13:28:00;95005.34;;;8.25;53.72
4012;BME280;2020;48.682;9.024;2023-03-14T13:30:28;95022.72;;;8.01;52.59
4012;BME280;2020;48.682;9.024;2023-03-14T13:33:03;95013.63;;;7.82;53.52
4012;BME280;2020;48.682;9.024;2023-03-14T13:35:40;95045.53;;;7.82;54.71
4012;BME280;2020;48.682;9.024;2023-03-14T13:38:16;95056.94;;;7.73;57.42
4012;BME280;2020;48.682;9.024;2023-03-14T13:40:45;95050.94;;;7.72;54.29
4012;BME280;2020;48.682;9.024;2023-03-14T13:43:16;95053.41;;;7.66;54.78
4012;BME280;2020;48.682;9.024;2023-03-14T13:45:54;95062.09;;;7.50;54.51
4012;BME280;2020;48.682;9.024;2023-03-14T13:48:21;95093.28;;;7.56;56.97
4012;BME280;2020;48.682;9.024;2023-03-14T13:50:53;95096.59;;;7.42;53.77
4012;BME280;2020;48.682;9.024;2023-03-14T13:53:19;95113.31;;;7.63;54.00
4012;BME280;2020;48.682;9.024;2023-03-14T13:55:44;95106.19;;;7.65;51.66
4012;BME280;2020;48.682;9.024;2023-03-14T13:58:30;95109.06;;;7.38;50.92
4012;BME280;2020;48.682;9.024;2023-03-14T14:01:03;95112.16;;;7.34;51.18
4012;BME280;2020;48.682;9.024;2023-03-14T14:03:31;95135.00;;;7.22;50.00
4012;BME280;2020;48.682;9.024;2023-03-14T14:05:57;95112.84;;;7.19;52.74
4012;BME280;2020;48.682;9.024;2023-03-14T14:08:25;95123.19;;;7.19;50.87
4012;BME280;2020;48.682;9.024;2023-03-14T14:10:56;95123.16;;;7.36;53.06
4012;BME280;2020;48.682;9.024;2023-03-14T14:13:23;95120.56;;;7.27;50.59
4012;BME280;2020;48.682;9.024;2023-03-14T14:15:51;95130.28;;;7.25;50.85
4012;BME280;2020;48.682;9.024;2023-03-14T14:18:20;95148.75;;;7.22;51.62
4012;BME280;2020;48.682;9.024;2023-03-14T14:20:47;95135.22;;;7.03;50.65